x

East Scotia Slope (44137) Wave Buoy

7:00am - Mon 22nd Sep 2014 All times are EDT. -4 hours from GMT.

  • Sig Wave height 15.7ft
  • Peak Period 10s
  • Wind
    38mph, 47mph gusts
  • Sea Temp 74°f
  • Air Temp 77°f
  • Sea Pressure 1003.8mb
  • East Scotia Slope
  • East Scotia Slope

More Historic Weather Station data

Upgrade to MSW Pro to gain access to the past 30 days of data for over 8000 Wavebouys and Weather Stations around the globe.

Join Pro

Comparision Forecast

View Surf forecast
   
Mon 09/22 7:00am 15.5ft 10s 38 47 mph 1003.8mb 74f 77f
6:00am 16ft 10s 38 49 mph 1004.5mb 74f 77f
5:00am 15ft 9s 38 51 mph 1005.4mb 74f 77f
4:00am 14.5ft 8s 36 49 mph 1006.5mb 74f 77f
3:00am 14.5ft 9s 36 45 mph 1007.7mb 74f 75f
2:00am 13.5ft 8s 36 47 mph 1009.4mb 75f 76f
1:00am 12ft 9s 31 40 mph 1010.8mb 75f 75f
12:00am 12.5ft 8s 34 43 mph 1011.7mb 75f 74f
Sun 09/21 11:00pm 12.5ft 8s 36 45 mph 1012.7mb 75f 75f
10:00pm 11.5ft 8s 36 47 mph 1013.3mb 75f 74f
9:00pm 11ft 7s 31 38 mph 1014.4mb 75f 73f
8:00pm 10ft 7s 34 40 mph 1015mb 75f 75f
7:00pm 7.5ft 6s 31 40 mph 1015mb 75f 75f
6:00pm 6ft 6s 29 38 mph 1016.2mb 75f 74f
5:00pm 6ft 5s 27 31 mph 1017.2mb 75f 76f
4:00pm 5ft 6s 25 31 mph 1017.7mb 75f 76f
3:00pm 5ft 5s 22 27 mph 1018.4mb 75f 76f
2:00pm 5ft 6s 20 25 mph 1019.3mb 75f 76f
1:00pm 5ft 5s 20 25 mph 1020.4mb 75f 76f
12:00pm 4.5ft 5s 22 27 mph 1021.7mb 75f 75f
11:00am 4.5ft 5s 22 27 mph 1022.3mb 75f 75f
10:00am 4.5ft 5s 20 25 mph 1022.8mb 75f 74f
9:00am 4.5ft 5s 20 22 mph 1023.1mb 74f 74f
8:00am 5ft 5s 20 22 mph 1023mb 74f 74f
7:00am 5ft 5s 22 25 mph 1022.9mb 74f 73f
6:00am 5ft 5s 20 25 mph 1022.9mb 74f 73f
5:00am 5ft 6s 13 22 mph 1023mb 74f 73f
4:00am 5ft 6s 18 25 mph 1023.1mb 74f 73f
3:00am 5.5ft 5s 22 27 mph 1023.3mb 75f 73f
2:00am 5ft 5s 20 25 mph 1023.7mb 75f 72f
1:00am 4.5ft 5s 22 27 mph 1024.6mb 74f 71f
12:00am 4.5ft 5s 22 25 mph 1025.1mb 74f 71f
Sat 09/20 11:00pm 4.5ft 5s 20 25 mph 1025.8mb 74f 70f
10:00pm 4.5ft  -  18 22 mph 1026.2mb 74f 70f
9:00pm 4.5ft 11s 20 25 mph 1026.7mb 74f 69f
8:00pm 4.5ft 5s 20 25 mph 1026.9mb 74f 69f
7:00pm 4.5ft 4s 20 25 mph 1026.9mb 74f 69f
6:00pm 4.5ft  -  18 25 mph 1027.4mb 74f 69f
5:00pm 4.5ft  -  20 25 mph 1027.6mb 74f 69f
4:00pm 4.5ft 10s 20 25 mph 1027.9mb 74f 68f
3:00pm 3.5ft 11s 20 25 mph 1028.2mb 74f 68f
2:00pm 3.5ft 11s 18 25 mph 1028.6mb 74f 66f
1:00pm 3.5ft 11s 16 22 mph 1029.4mb 75f 65f
12:00pm 3.5ft 10s 16 22 mph 1030.1mb 75f 64f
11:00am 3.5ft 7s 16 20 mph 1030.9mb 75f 62f
10:00am 3.5ft 6s 13 18 mph 1031.8mb 74f 61f
9:00am 3.5ft 6s 11 13 mph 1031.8mb 75f 60f
8:00am 3.5ft 7s 11 13 mph 1031.6mb 74f 59f
7:00am 4ft 7s 4 11 mph 1031.8mb 75f 58f
6:00am 4.5ft 6s 4 9 mph 1031.7mb 75f 57f
5:00am 4.5ft 7s 7 13 mph 1031.1mb 74f 57f
4:00am 4.5ft 6s 7 13 mph 1030.4mb 74f 57f
3:00am 4.5ft 6s 9 13 mph 1030.1mb 74f 56f
2:00am 5ft 6s 11 18 mph 1030mb 74f 57f
1:00am 6ft 7s 16 20 mph 1029.5mb 75f 57f
12:00am 6ft 7s 16 22 mph 1029.7mb 75f 57f
Fri 09/19 11:00pm 6.5ft 7s 18 25 mph 1029.6mb 75f 57f
10:00pm 7ft 7s 20 29 mph 1029.1mb 75f 57f
9:00pm 7.5ft 7s 18 25 mph 1028.5mb 75f 57f
8:00pm 8ft 8s 22 31 mph 1027.4mb 75f 57f
7:00pm 8.5ft 7s 25 34 mph 1026.7mb 75f 57f
6:00pm 7ft 7s 22 27 mph 1026.1mb 75f 56f
5:00pm 7ft 7s 25 31 mph 1025.5mb 75f 56f
4:00pm 7ft 7s 22 31 mph 1024.7mb 75f 56f
3:00pm 7ft 7s 25 36 mph 1023.8mb 75f 56f
2:00pm 7ft 7s 22 29 mph 1023mb 75f 57f
1:00pm 7ft 6s 25 31 mph 1022.1mb 75f 58f
12:00pm 6ft 6s 25 29 mph 1021.1mb 75f 60f
11:00am 5.5ft 6s 20 27 mph 1020.7mb 75f 61f
10:00am 6ft 6s 22 27 mph 1020.3mb 75f 62f
9:00am 5.5ft 5s 25 29 mph 1019.6mb 75f 62f
8:00am 5ft 5s 22 29 mph 1018.6mb 75f 64f
7:00am 4.5ft 4s 20 27 mph 1017.6mb 75f 64f
6:00am 4.5ft  -  22
mph
1016.5mb 75f 64f
5:00am 4ft 9s 20 27 mph 1015.6mb 75f 65f
4:00am 4.5ft 10s 16 20 mph 1014.8mb 75f 66f
3:00am 3.5ft 10s 18 22 mph 1014mb 75f 66f
2:00am 3.5ft 10s 7 9 mph 1014mb 75f 65f
1:00am 3.5ft 10s 4 7 mph 1013.8mb 75f 65f
12:00am 3.5ft 11s 16 20 mph 1013.4mb 75f 65f
Thu 09/18 11:00pm 3.5ft 12s 13 20 mph 1013mb 75f 67f
10:00pm 3.5ft 12s 13 18 mph 1013.1mb 75f 67f
9:00pm 4ft 11s 9 13 mph 1013mb 76f 67f
8:00pm 4.5ft 8s 11 16 mph 1012.8mb 75f 65f
7:00pm 4.5ft 9s 7 11 mph 1012.4mb 76f 65f
6:00pm 4.5ft 8s 9 11 mph 1011.8mb 76f 67f
5:00pm 4.5ft 9s 9 11 mph 1011.6mb 76f 67f
4:00pm 4.5ft 8s 11 13 mph 1011.7mb 76f 68f
3:00pm 4ft 9s 9 11 mph 1012.5mb 76f 70f
2:00pm 3.5ft 11s 7 11 mph 1012.8mb 76f 70f
1:00pm 3.5ft 10s 4 7 mph 1013.2mb 76f 70f